sensor_id;sensor_type;location;lat;lon;timestamp;temperature;humidity
46766;DHT22;32527;51.986;5.842;2022-10-15T00:00:44;11.10;99.90
46766;DHT22;32527;51.986;5.842;2022-10-15T00:05:40;10.70;99.90
46766;DHT22;32527;51.986;5.842;2022-10-15T00:08:07;10.70;99.90
46766;DHT22;32527;51.986;5.842;2022-10-15T00:10:33;11.10;99.90
46766;DHT22;32527;51.986;5.842;2022-10-15T00:15:25;10.90;99.90
46766;DHT22;32527;51.986;5.842;2022-10-15T00:17:51;10.40;99.90
46766;DHT22;32527;51.986;5.842;2022-10-15T00:20:17;10.60;99.90
46766;DHT22;32527;51.986;5.842;2022-10-15T00:22:43;10.80;99.90
46766;DHT22;32527;51.986;5.842;2022-10-15T00:25:10;10.70;99.90
46766;DHT22;32527;51.986;5.842;2022-10-15T00:27:36;10.60;99.90
46766;DHT22;32527;51.986;5.842;2022-10-15T00:30:03;10.60;99.90
46766;DHT22;32527;51.986;5.842;2022-10-15T00:32:30;10.50;99.90
46766;DHT22;32527;51.986;5.842;2022-10-15T00:34:56;10.70;99.90
46766;DHT22;32527;51.986;5.842;2022-10-15T00:37:23;10.40;99.90
46766;DHT22;32527;51.986;5.842;2022-10-15T00:44:54;10.40;99.90
46766;DHT22;32527;51.986;5.842;2022-10-15T00:47:28;10.40;99.90
46766;DHT22;32527;51.986;5.842;2022-10-15T00:50:21;10.60;99.90
46766;DHT22;32527;51.986;5.842;2022-10-15T00:55:33;10.50;99.90
46766;DHT22;32527;51.986;5.842;2022-10-15T00:58:11;10.20;99.90
46766;DHT22;32527;51.986;5.842;2022-10-15T01:00:38;10.80;99.90
46766;DHT22;32527;51.986;5.842;2022-10-15T01:03:04;10.30;99.90
46766;DHT22;32527;51.986;5.842;2022-10-15T01:05:30;10.10;99.90
46766;DHT22;32527;51.986;5.842;2022-10-15T01:10:24;10.50;99.90
46766;DHT22;32527;51.986;5.842;2022-10-15T01:12:57;10.60;99.90
46766;DHT22;32527;51.986;5.842;2022-10-15T01:15:46;10.40;99.90
46766;DHT22;32527;51.986;5.842;2022-10-15T01:18:21;10.60;99.90
46766;DHT22;32527;51.986;5.842;2022-10-15T01:31:00;10.70;99.90
46766;DHT22;32527;51.986;5.842;2022-10-15T01:38:48;10.80;99.90
46766;DHT22;32527;51.986;5.842;2022-10-15T01:44:23;11.20;99.90
46766;DHT22;32527;51.986;5.842;2022-10-15T01:47:31;10.60;99.90
46766;DHT22;32527;51.986;5.842;2022-10-15T01:50:00;10.40;99.90
46766;DHT22;32527;51.986;5.842;2022-10-15T01:52:30;10.70;99.90
46766;DHT22;32527;51.986;5.842;2022-10-15T01:54:58;10.80;99.90
46766;DHT22;32527;51.986;5.842;2022-10-15T01:57:26;11.10;99.90
46766;DHT22;32527;51.986;5.842;2022-10-15T02:07:31;10.80;99.90
46766;DHT22;32527;51.986;5.842;2022-10-15T02:13:20;11.40;99.90
46766;DHT22;32527;51.986;5.842;2022-10-15T02:16:01;11.40;99.90
46766;DHT22;32527;51.986;5.842;2022-10-15T02:18:41;11.10;99.90
46766;DHT22;32527;51.986;5.842;2022-10-15T02:23:52;11.70;99.90
46766;DHT22;32527;51.986;5.842;2022-10-15T02:26:24;10.80;99.90
46766;DHT22;32527;51.986;5.842;2022-10-15T02:28:56;10.90;99.90
46766;DHT22;32527;51.986;5.842;2022-10-15T02:31:23;11.10;99.90
46766;DHT22;32527;51.986;5.842;2022-10-15T02:33:53;11.10;99.90
46766;DHT22;32527;51.986;5.842;2022-10-15T02:36:20;11.00;99.90
46766;DHT22;32527;51.986;5.842;2022-10-15T02:38:46;11.20;99.90
46766;DHT22;32527;51.986;5.842;2022-10-15T02:41:14;11.30;99.90
46766;DHT22;32527;51.986;5.842;2022-10-15T02:43:40;11.00;99.90
46766;DHT22;32527;51.986;5.842;2022-10-15T02:46:09;11.00;99.90
46766;DHT22;32527;51.986;5.842;2022-10-15T02:48:36;10.60;99.90
46766;DHT22;32527;51.986;5.842;2022-10-15T02:51:03;10.90;99.90
46766;DHT22;32527;51.986;5.842;2022-10-15T02:55:57;11.00;99.90
46766;DHT22;32527;51.986;5.842;2022-10-15T03:13:04;10.70;99.90
46766;DHT22;32527;51.986;5.842;2022-10-15T03:15:32;10.70;99.90
46766;DHT22;32527;51.986;5.842;2022-10-15T03:17:58;10.80;99.90
46766;DHT22;32527;51.986;5.842;2022-10-15T03:20:23;10.50;99.90
46766;DHT22;32527;51.986;5.842;2022-10-15T03:22:49;10.80;99.90
46766;DHT22;32527;51.986;5.842;2022-10-15T03:25:15;10.90;99.90
46766;DHT22;32527;51.986;5.842;2022-10-15T03:27:41;10.70;99.90
46766;DHT22;32527;51.986;5.842;2022-10-15T03:30:19;10.90;99.90
46766;DHT22;32527;51.986;5.842;2022-10-15T03:32:46;11.00;99.90
46766;DHT22;32527;51.986;5.842;2022-10-15T03:35:12;10.90;99.90
46766;DHT22;32527;51.986;5.842;2022-10-15T03:37:38;11.30;99.90
46766;DHT22;32527;51.986;5.842;2022-10-15T03:42:32;11.20;99.90
46766;DHT22;32527;51.986;5.842;2022-10-15T03:47:25;11.30;99.90
46766;DHT22;32527;51.986;5.842;2022-10-15T03:49:51;11.70;99.90
46766;DHT22;32527;51.986;5.842;2022-10-15T03:54:46;11.10;99.90
46766;DHT22;32527;51.986;5.842;2022-10-15T03:57:14;11.40;99.90
46766;DHT22;32527;51.986;5.842;2022-10-15T03:59:48;11.10;99.90
46766;DHT22;32527;51.986;5.842;2022-10-15T04:09:34;11.50;99.90
46766;DHT22;32527;51.986;5.842;2022-10-15T04:12:21;11.20;99.90
46766;DHT22;32527;51.986;5.842;2022-10-15T04:17:15;11.30;99.90
46766;DHT22;32527;51.986;5.842;2022-10-15T04:19:40;11.20;99.90
46766;DHT22;32527;51.986;5.842;2022-10-15T04:32:12;11.30;99.90
46766;DHT22;32527;51.986;5.842;2022-10-15T04:37:11;11.50;99.90
46766;DHT22;32527;51.986;5.842;2022-10-15T04:39:37;11.80;99.90
46766;DHT22;32527;51.986;5.842;2022-10-15T04:42:03;11.50;99.90
46766;DHT22;32527;51.986;5.842;2022-10-15T04:46:57;11.70;99.90
46766;DHT22;32527;51.986;5.842;2022-10-15T04:54:33;11.90;99.90
46766;DHT22;32527;51.986;5.842;2022-10-15T04:57:04;10.10;99.90
46766;DHT22;32527;51.986;5.842;2022-10-15T04:59:30;11.50;99.90
46766;DHT22;32527;51.986;5.842;2022-10-15T05:02:14;11.90;99.90
46766;DHT22;32527;51.986;5.842;2022-10-15T05:07:07;11.20;99.90
46766;DHT22;32527;51.986;5.842;2022-10-15T05:12:00;11.80;99.90
46766;DHT22;32527;51.986;5.842;2022-10-15T05:17:07;12.10;99.90
46766;DHT22;32527;51.986;5.842;2022-10-15T05:19:40;11.50;99.90
46766;DHT22;32527;51.986;5.842;2022-10-15T05:22:13;11.60;99.90
46766;DHT22;32527;51.986;5.842;2022-10-15T05:32:16;11.70;99.90
46766;DHT22;32527;51.986;5.842;2022-10-15T05:42:08;11.90;99.90
46766;DHT22;32527;51.986;5.842;2022-10-15T05:44:43;11.80;99.90
46766;DHT22;32527;51.986;5.842;2022-10-15T05:49:37;11.80;99.90
46766;DHT22;32527;51.986;5.842;2022-10-15T05:52:09;11.60;99.90
46766;DHT22;32527;51.986;5.842;2022-10-15T05:55:04;11.90;99.90
46766;DHT22;32527;51.986;5.842;2022-10-15T05:57:30;11.80;99.90
46766;DHT22;32527;51.986;5.842;2022-10-15T05:59:56;11.60;99.90
46766;DHT22;32527;51.986;5.842;2022-10-15T06:02:21;11.70;99.90
46766;DHT22;32527;51.986;5.842;2022-10-15T06:04:47;11.90;99.90
46766;DHT22;32527;51.986;5.842;2022-10-15T06:07:13;12.40;99.90
46766;DHT22;32527;51.986;5.842;2022-10-15T06:09:40;11.90;99.90
46766;DHT22;32527;51.986;5.842;2022-10-15T06:12:05;12.00;99.90
46766;DHT22;32527;51.986;5.842;2022-10-15T06:29:08;12.20;99.90
46766;DHT22;32527;51.986;5.842;2022-10-15T06:34:00;12.60;99.90
46766;DHT22;32527;51.986;5.842;2022-10-15T06:48:37;12.20;99.90
46766;DHT22;32527;51.986;5.842;2022-10-15T06:51:03;12.60;99.90
46766;DHT22;32527;51.986;5.842;2022-10-15T06:53:29;12.40;99.90
46766;DHT22;32527;51.986;5.842;2022-10-15T06:55:56;12.40;99.90
46766;DHT22;32527;51.986;5.842;2022-10-15T07:12:59;12.60;99.90
46766;DHT22;32527;51.986;5.842;2022-10-15T07:15:25;12.60;99.90
46766;DHT22;32527;51.986;5.842;2022-10-15T07:17:53;12.50;99.90
46766;DHT22;32527;51.986;5.842;2022-10-15T07:20:27;12.50;99.90
46766;DHT22;32527;51.986;5.842;2022-10-15T07:23:00;12.80;99.90
46766;DHT22;32527;51.986;5.842;2022-10-15T07:25:29;13.10;99.90
46766;DHT22;32527;51.986;5.842;2022-10-15T07:27:55;12.90;99.90
46766;DHT22;32527;51.986;5.842;2022-10-15T07:30:22;12.50;99.90
46766;DHT22;32527;51.986;5.842;2022-10-15T07:32:49;12.80;99.90
46766;DHT22;32527;51.986;5.842;2022-10-15T07:57:16;12.90;99.90
46766;DHT22;32527;51.986;5.842;2022-10-15T07:59:41;13.10;99.90
46766;DHT22;32527;51.986;5.842;2022-10-15T08:02:16;12.90;99.90
46766;DHT22;32527;51.986;5.842;2022-10-15T08:04:42;13.00;99.90
46766;DHT22;32527;51.986;5.842;2022-10-15T08:19:18;14.00;99.90
46766;DHT22;32527;51.986;5.842;2022-10-15T08:21:44;13.30;99.90
46766;DHT22;32527;51.986;5.842;2022-10-15T08:26:36;13.50;99.90
46766;DHT22;32527;51.986;5.842;2022-10-15T08:29:02;13.60;99.90
46766;DHT22;32527;51.986;5.842;2022-10-15T08:31:28;13.80;99.90
46766;DHT22;32527;51.986;5.842;2022-10-15T08:33:53;14.50;99.90
46766;DHT22;32527;51.986;5.842;2022-10-15T08:36:19;14.20;99.90
46766;DHT22;32527;51.986;5.842;2022-10-15T08:38:44;14.30;99.90
46766;DHT22;32527;51.986;5.842;2022-10-15T08:41:23;14.60;99.90
46766;DHT22;32527;51.986;5.842;2022-10-15T08:43:50;14.00;99.90
46766;DHT22;32527;51.986;5.842;2022-10-15T08:46:24;14.50;99.90
46766;DHT22;32527;51.986;5.842;2022-10-15T08:48:54;14.30;99.90
46766;DHT22;32527;51.986;5.842;2022-10-15T08:51:22;15.00;99.90
46766;DHT22;32527;51.986;5.842;2022-10-15T08:53:55;14.60;99.90
46766;DHT22;32527;51.986;5.842;2022-10-15T08:56:29;14.70;99.90
46766;DHT22;32527;51.986;5.842;2022-10-15T08:59:10;15.00;99.90
46766;DHT22;32527;51.986;5.842;2022-10-15T09:01:51;15.20;99.90
46766;DHT22;32527;51.986;5.842;2022-10-15T09:07:11;15.00;99.90
46766;DHT22;32527;51.986;5.842;2022-10-15T09:09:49;14.90;99.90
46766;DHT22;32527;51.986;5.842;2022-10-15T09:14:55;15.10;99.90
46766;DHT22;32527;51.986;5.842;2022-10-15T09:17:24;15.50;99.90
46766;DHT22;32527;51.986;5.842;2022-10-15T09:19:53;15.10;99.90
46766;DHT22;32527;51.986;5.842;2022-10-15T09:22:27;15.60;99.90
46766;DHT22;32527;51.986;5.842;2022-10-15T09:24:54;15.20;99.90
46766;DHT22;32527;51.986;5.842;2022-10-15T09:27:32;14.90;99.90
46766;DHT22;32527;51.986;5.842;2022-10-15T09:30:22;15.00;99.90
46766;DHT22;32527;51.986;5.842;2022-10-15T09:33:12;15.30;99.90
46766;DHT22;32527;51.986;5.842;2022-10-15T09:35:52;15.10;99.90
46766;DHT22;32527;51.986;5.842;2022-10-15T09:38:53;14.70;99.90
46766;DHT22;32527;51.986;5.842;2022-10-15T09:44:04;15.00;99.90
46766;DHT22;32527;51.986;5.842;2022-10-15T09:46:45;15.20;99.90
46766;DHT22;32527;51.986;5.842;2022-10-15T09:49:19;15.40;99.90
46766;DHT22;32527;51.986;5.842;2022-10-15T09:54:58;14.90;99.90
46766;DHT22;32527;51.986;5.842;2022-10-15T09:57:27;15.20;99.90
46766;DHT22;32527;51.986;5.842;2022-10-15T09:59:59;15.20;99.90
46766;DHT22;32527;51.986;5.842;2022-10-15T10:02:26;14.70;99.90
46766;DHT22;32527;51.986;5.842;2022-10-15T10:04:52;15.30;99.90
46766;DHT22;32527;51.986;5.842;2022-10-15T10:07:45;15.10;99.90
46766;DHT22;32527;51.986;5.842;2022-10-15T10:10:26;14.90;99.90
46766;DHT22;32527;51.986;5.842;2022-10-15T10:12:54;15.00;99.90
46766;DHT22;32527;51.986;5.842;2022-10-15T10:15:32;15.10;99.90
46766;DHT22;32527;51.986;5.842;2022-10-15T10:17:59;14.50;99.90
46766;DHT22;32527;51.986;5.842;2022-10-15T10:20:30;14.50;99.90
46766;DHT22;32527;51.986;5.842;2022-10-15T10:22:59;14.20;99.90
46766;DHT22;32527;51.986;5.842;2022-10-15T10:25:29;14.50;99.90
46766;DHT22;32527;51.986;5.842;2022-10-15T10:30:50;14.30;99.90
46766;DHT22;32527;51.986;5.842;2022-10-15T10:33:28;14.40;99.90
46766;DHT22;32527;51.986;5.842;2022-10-15T10:35:54;14.50;99.90
46766;DHT22;32527;51.986;5.842;2022-10-15T10:38:22;14.40;99.90
46766;DHT22;32527;51.986;5.842;2022-10-15T10:40:53;14.50;99.90
46766;DHT22;32527;51.986;5.842;2022-10-15T10:43:25;14.90;99.90
46766;DHT22;32527;51.986;5.842;2022-10-15T10:45:54;14.80;99.90
46766;DHT22;32527;51.986;5.842;2022-10-15T10:48:23;14.50;99.90
46766;DHT22;32527;51.986;5.842;2022-10-15T10:51:01;14.50;99.90
46766;DHT22;32527;51.986;5.842;2022-10-15T10:55:54;14.90;99.90
46766;DHT22;32527;51.986;5.842;2022-10-15T10:58:26;15.00;99.90
46766;DHT22;32527;51.986;5.842;2022-10-15T11:00:52;14.50;99.90
46766;DHT22;32527;51.986;5.842;2022-10-15T11:17:38;14.50;99.90
46766;DHT22;32527;51.986;5.842;2022-10-15T11:23:09;14.90;99.90
46766;DHT22;32527;51.986;5.842;2022-10-15T11:31:25;14.30;99.90
46766;DHT22;32527;51.986;5.842;2022-10-15T11:37:14;14.50;99.90
46766;DHT22;32527;51.986;5.842;2022-10-15T11:42:16;15.20;99.90
46766;DHT22;32527;51.986;5.842;2022-10-15T11:47:58;15.10;99.90
46766;DHT22;32527;51.986;5.842;2022-10-15T11:50:35;15.30;99.90
46766;DHT22;32527;51.986;5.842;2022-10-15T11:55:49;15.20;99.90
46766;DHT22;32527;51.986;5.842;2022-10-15T11:58:31;15.30;99.90
46766;DHT22;32527;51.986;5.842;2022-10-15T12:01:02;14.60;99.90
46766;DHT22;32527;51.986;5.842;2022-10-15T12:03:36;15.00;99.90
46766;DHT22;32527;51.986;5.842;2022-10-15T12:06:16;15.50;99.90
46766;DHT22;32527;51.986;5.842;2022-10-15T12:08:45;15.00;99.90
46766;DHT22;32527;51.986;5.842;2022-10-15T12:11:38;15.10;99.90
46766;DHT22;32527;51.986;5.842;2022-10-15T12:17:07;15.60;99.90
46766;DHT22;32527;51.986;5.842;2022-10-15T12:19:52;15.20;99.90
46766;DHT22;32527;51.986;5.842;2022-10-15T12:22:54;15.10;99.90
46766;DHT22;32527;51.986;5.842;2022-10-15T12:28:26;15.40;99.90
46766;DHT22;32527;51.986;5.842;2022-10-15T12:30:57;15.20;99.90
46766;DHT22;32527;51.986;5.842;2022-10-15T12:36:23;14.90;99.90
46766;DHT22;32527;51.986;5.842;2022-10-15T12:41:18;15.10;99.90
46766;DHT22;32527;51.986;5.842;2022-10-15T12:43:50;15.50;99.90
46766;DHT22;32527;51.986;5.842;2022-10-15T12:48:45;15.40;99.90
46766;DHT22;32527;51.986;5.842;2022-10-15T12:53:47;15.40;99.90
46766;DHT22;32527;51.986;5.842;2022-10-15T12:58:46;15.40;99.90
46766;DHT22;32527;51.986;5.842;2022-10-15T13:08:48;15.30;99.90
46766;DHT22;32527;51.986;5.842;2022-10-15T13:11:28;16.20;99.90
46766;DHT22;32527;51.986;5.842;2022-10-15T13:16:34;16.40;99.90
46766;DHT22;32527;51.986;5.842;2022-10-15T13:19:02;16.10;99.90
46766;DHT22;32527;51.986;5.842;2022-10-15T13:21:51;15.90;99.90
46766;DHT22;32527;51.986;5.842;2022-10-15T13:24:21;15.80;99.90
46766;DHT22;32527;51.986;5.842;2022-10-15T13:29:18;16.30;99.90
46766;DHT22;32527;51.986;5.842;2022-10-15T13:31:44;16.10;99.90
46766;DHT22;32527;51.986;5.842;2022-10-15T13:34:13;15.90;99.90
46766;DHT22;32527;51.986;5.842;2022-10-15T13:36:40;16.20;99.90
46766;DHT22;32527;51.986;5.842;2022-10-15T13:39:35;16.50;99.90
46766;DHT22;32527;51.986;5.842;2022-10-15T13:42:08;16.00;99.90
46766;DHT22;32527;51.986;5.842;2022-10-15T13:44:34;16.20;99.90
46766;DHT22;32527;51.986;5.842;2022-10-15T13:47:00;15.70;99.90
46766;DHT22;32527;51.986;5.842;2022-10-15T13:49:26;15.70;99.90
46766;DHT22;32527;51.986;5.842;2022-10-15T13:51:52;15.90;99.90
46766;DHT22;32527;51.986;5.842;2022-10-15T13:54:20;15.90;99.90
46766;DHT22;32527;51.986;5.842;2022-10-15T13:56:53;16.00;99.90
46766;DHT22;32527;51.986;5.842;2022-10-15T13:59:20;15.90;99.90
46766;DHT22;32527;51.986;5.842;2022-10-15T14:01:50;15.60;99.90
46766;DHT22;32527;51.986;5.842;2022-10-15T14:04:19;15.90;99.90
46766;DHT22;32527;51.986;5.842;2022-10-15T14:07:00;15.70;99.90
46766;DHT22;32527;51.986;5.842;2022-10-15T14:09:30;15.80;99.90
46766;DHT22;32527;51.986;5.842;2022-10-15T14:11:57;15.70;99.90
46766;DHT22;32527;51.986;5.842;2022-10-15T14:14:46;15.40;99.90
46766;DHT22;32527;51.986;5.842;2022-10-15T14:19:49;15.50;99.90
46766;DHT22;32527;51.986;5.842;2022-10-15T14:22:19;15.50;99.90
46766;DHT22;32527;51.986;5.842;2022-10-15T14:24:50;15.40;99.90
46766;DHT22;32527;51.986;5.842;2022-10-15T14:27:21;15.40;99.90
46766;DHT22;32527;51.986;5.842;2022-10-15T14:29:52;15.30;99.90
46766;DHT22;32527;51.986;5.842;2022-10-15T14:34:51;15.30;99.90
46766;DHT22;32527;51.986;5.842;2022-10-15T14:40:07;15.30;99.90
46766;DHT22;32527;51.986;5.842;2022-10-15T14:42:47;15.10;99.90
46766;DHT22;32527;51.986;5.842;2022-10-15T14:47:54;15.00;99.90
46766;DHT22;32527;51.986;5.842;2022-10-15T14:50:24;15.40;99.90
46766;DHT22;32527;51.986;5.842;2022-10-15T14:52:52;15.00;99.90
46766;DHT22;32527;51.986;5.842;2022-10-15T14:55:29;15.80;99.90
46766;DHT22;32527;51.986;5.842;2022-10-15T14:57:59;15.30;99.90
46766;DHT22;32527;51.986;5.842;2022-10-15T15:02:55;15.30;99.90
46766;DHT22;32527;51.986;5.842;2022-10-15T15:05:23;15.20;99.90
46766;DHT22;32527;51.986;5.842;2022-10-15T15:12:48;15.10;99.90
46766;DHT22;32527;51.986;5.842;2022-10-15T15:15:17;14.80;99.90
46766;DHT22;32527;51.986;5.842;2022-10-15T15:25:17;14.90;99.90
46766;DHT22;32527;51.986;5.842;2022-10-15T15:30:23;14.80;99.90
46766;DHT22;32527;51.986;5.842;2022-10-15T15:37:50;14.60;99.90
46766;DHT22;32527;51.986;5.842;2022-10-15T15:42:43;14.50;99.90
46766;DHT22;32527;51.986;5.842;2022-10-15T15:45:19;14.40;99.90
46766;DHT22;32527;51.986;5.842;2022-10-15T15:55:04;14.40;99.90
46766;DHT22;32527;51.986;5.842;2022-10-15T16:02:23;14.40;99.90
46766;DHT22;32527;51.986;5.842;2022-10-15T16:34:03;13.60;99.90
46766;DHT22;32527;51.986;5.842;2022-10-15T16:51:14;13.00;99.90
46766;DHT22;32527;51.986;5.842;2022-10-15T16:53:42;12.90;99.90
46766;DHT22;32527;51.986;5.842;2022-10-15T16:56:22;12.80;99.90
46766;DHT22;32527;51.986;5.842;2022-10-15T17:01:21;12.60;99.90
46766;DHT22;32527;51.986;5.842;2022-10-15T17:06:19;12.60;99.90
46766;DHT22;32527;51.986;5.842;2022-10-15T17:08:50;12.40;99.90
46766;DHT22;32527;51.986;5.842;2022-10-15T17:11:22;12.30;99.90
46766;DHT22;32527;51.986;5.842;2022-10-15T17:13:50;12.40;99.90
46766;DHT22;32527;51.986;5.842;2022-10-15T17:16:22;12.40;99.90
46766;DHT22;32527;51.986;5.842;2022-10-15T17:21:17;12.30;99.90
46766;DHT22;32527;51.986;5.842;2022-10-15T17:26:14;12.30;99.90
46766;DHT22;32527;51.986;5.842;2022-10-15T17:28:43;12.20;99.90
46766;DHT22;32527;51.986;5.842;2022-10-15T17:31:11;12.20;99.90
46766;DHT22;32527;51.986;5.842;2022-10-15T17:33:39;12.10;99.90
46766;DHT22;32527;51.986;5.842;2022-10-15T17:36:09;12.10;99.90
46766;DHT22;32527;51.986;5.842;2022-10-15T17:41:11;12.20;99.90
46766;DHT22;32527;51.986;5.842;2022-10-15T17:46:10;12.10;99.90
46766;DHT22;32527;51.986;5.842;2022-10-15T17:51:06;12.10;99.90
46766;DHT22;32527;51.986;5.842;2022-10-15T17:53:32;12.20;99.90
46766;DHT22;32527;51.986;5.842;2022-10-15T17:58:24;12.10;99.90
46766;DHT22;32527;51.986;5.842;2022-10-15T18:00:55;11.90;99.90
46766;DHT22;32527;51.986;5.842;2022-10-15T18:03:23;12.10;99.90
46766;DHT22;32527;51.986;5.842;2022-10-15T18:05:49;12.10;99.90
46766;DHT22;32527;51.986;5.842;2022-10-15T18:10:43;12.10;99.90
46766;DHT22;32527;51.986;5.842;2022-10-15T18:13:11;12.10;99.90
46766;DHT22;32527;51.986;5.842;2022-10-15T18:15:46;12.10;99.90
46766;DHT22;32527;51.986;5.842;2022-10-15T18:20:43;12.00;99.90
46766;DHT22;32527;51.986;5.842;2022-10-15T18:50:03;11.70;99.90
46766;DHT22;32527;51.986;5.842;2022-10-15T18:59:49;11.70;99.90
46766;DHT22;32527;51.986;5.842;2022-10-15T19:19:21;10.20;99.90
46766;DHT22;32527;51.986;5.842;2022-10-15T19:21:48;11.70;99.90
46766;DHT22;32527;51.986;5.842;2022-10-15T19:24:15;11.70;99.90
46766;DHT22;32527;51.986;5.842;2022-10-15T19:26:42;11.60;99.90
46766;DHT22;32527;51.986;5.842;2022-10-15T19:31:36;11.70;99.90
46766;DHT22;32527;51.986;5.842;2022-10-15T19:34:03;11.70;99.90
46766;DHT22;32527;51.986;5.842;2022-10-15T19:36:32;11.70;99.90
46766;DHT22;32527;51.986;5.842;2022-10-15T19:39:10;12.20;99.90
46766;DHT22;32527;51.986;5.842;2022-10-15T19:41:41;11.70;99.90
46766;DHT22;32527;51.986;5.842;2022-10-15T19:44:07;11.50;99.90
46766;DHT22;32527;51.986;5.842;2022-10-15T19:46:37;11.70;99.90
46766;DHT22;32527;51.986;5.842;2022-10-15T19:49:04;11.50;99.90
46766;DHT22;32527;51.986;5.842;2022-10-15T19:53:56;11.70;99.90
46766;DHT22;32527;51.986;5.842;2022-10-15T19:58:55;11.80;99.90
46766;DHT22;32527;51.986;5.842;2022-10-15T20:01:23;11.70;99.90
46766;DHT22;32527;51.986;5.842;2022-10-15T20:03:57;11.70;99.90
46766;DHT22;32527;51.986;5.842;2022-10-15T20:09:50;11.00;99.90
46766;DHT22;32527;51.986;5.842;2022-10-15T20:12:42;11.60;99.90
46766;DHT22;32527;51.986;5.842;2022-10-15T20:39:42;11.70;99.90
46766;DHT22;32527;51.986;5.842;2022-10-15T20:44:41;11.80;99.90
46766;DHT22;32527;51.986;5.842;2022-10-15T20:47:09;12.10;99.90
46766;DHT22;32527;51.986;5.842;2022-10-15T20:49:39;11.80;99.90
46766;DHT22;32527;51.986;5.842;2022-10-15T20:52:06;11.80;99.90
46766;DHT22;32527;51.986;5.842;2022-10-15T21:11:43;11.70;99.90
46766;DHT22;32527;51.986;5.842;2022-10-15T21:14:11;11.70;99.90
46766;DHT22;32527;51.986;5.842;2022-10-15T21:28:57;11.40;99.90
46766;DHT22;32527;51.986;5.842;2022-10-15T21:31:23;11.50;99.90
46766;DHT22;32527;51.986;5.842;2022-10-15T21:36:21;11.50;99.90
46766;DHT22;32527;51.986;5.842;2022-10-15T21:38:50;11.40;99.90
46766;DHT22;32527;51.986;5.842;2022-10-15T21:46:10;11.40;99.90
46766;DHT22;32527;51.986;5.842;2022-10-15T21:48:36;11.40;99.90
46766;DHT22;32527;51.986;5.842;2022-10-15T21:51:07;11.40;99.90
46766;DHT22;32527;51.986;5.842;2022-10-15T22:30:04;11.30;99.90
46766;DHT22;32527;51.986;5.842;2022-10-15T23:04:11;10.90;99.90
46766;DHT22;32527;51.986;5.842;2022-10-15T23:06:38;11.10;99.90
46766;DHT22;32527;51.986;5.842;2022-10-15T23:09:05;10.90;99.90
46766;DHT22;32527;51.986;5.842;2022-10-15T23:11:33;11.10;99.90
46766;DHT22;32527;51.986;5.842;2022-10-15T23:14:02;10.80;99.90
46766;DHT22;32527;51.986;5.842;2022-10-15T23:16:30;10.80;99.90
46766;DHT22;32527;51.986;5.842;2022-10-15T23:18:58;10.90;99.90
46766;DHT22;32527;51.986;5.842;2022-10-15T23:24:04;11.10;99.90
46766;DHT22;32527;51.986;5.842;2022-10-15T23:26:30;10.90;99.90
46766;DHT22;32527;51.986;5.842;2022-10-15T23:28:58;11.00;99.90
46766;DHT22;32527;51.986;5.842;2022-10-15T23:31:29;11.00;99.90
46766;DHT22;32527;51.986;5.842;2022-10-15T23:33:56;10.70;99.90
46766;DHT22;32527;51.986;5.842;2022-10-15T23:36:23;11.30;99.90
46766;DHT22;32527;51.986;5.842;2022-10-15T23:38:51;11.00;99.90
46766;DHT22;32527;51.986;5.842;2022-10-15T23:43:43;10.60;99.90
